createdAt,value
2022-07-30T00:00:37.614Z,100374.00
2022-07-30T00:03:07.536Z,100376.97
2022-07-30T00:05:35.963Z,100369.09
2022-07-30T00:08:04.486Z,100368.13
2022-07-30T00:10:32.501Z,100372.00
2022-07-30T00:13:00.610Z,100372.94
2022-07-30T00:15:30.292Z,100366.84
2022-07-30T00:17:58.373Z,100362.16
2022-07-30T00:20:28.074Z,100362.59
2022-07-30T00:22:56.509Z,100370.66
2022-07-30T00:25:24.922Z,100366.41
2022-07-30T00:27:53.328Z,100359.19
2022-07-30T00:30:21.417Z,100355.72
2022-07-30T00:32:50.891Z,100362.28
2022-07-30T00:35:19.480Z,100361.31
2022-07-30T00:37:47.629Z,100364.72
2022-07-30T00:40:16.111Z,100358.94
2022-07-30T00:42:46.637Z,100354.16
2022-07-30T00:45:16.121Z,100354.13
2022-07-30T00:47:44.473Z,100345.72
2022-07-30T00:50:15.398Z,100354.22
2022-07-30T00:52:44.836Z,100346.66
2022-07-30T00:55:15.454Z,100345.59
2022-07-30T00:57:44.382Z,100343.47
2022-07-30T01:00:15.628Z,100345.53
2022-07-30T01:02:43.864Z,100343.53
2022-07-30T01:05:13.389Z,100335.59
2022-07-30T01:07:41.665Z,100333.59
2022-07-30T01:10:11.864Z,100347.03
2022-07-30T01:12:41.038Z,100334.91
2022-07-30T01:15:11.097Z,100337.06
2022-07-30T01:17:39.455Z,100343.41
2022-07-30T01:20:10.830Z,100348.69
2022-07-30T01:22:50.560Z,100342.53
2022-07-30T01:25:27.343Z,100336.09
2022-07-30T01:28:01.879Z,100339.69
2022-07-30T01:30:34.958Z,100336.81
2022-07-30T01:33:05.739Z,100345.34
2022-07-30T01:35:35.580Z,100337.09
2022-07-30T01:38:06.766Z,100335.75
2022-07-30T01:40:38.531Z,100343.44
2022-07-30T01:43:09.887Z,100338.28
2022-07-30T01:45:42.298Z,100337.91
2022-07-30T01:48:15.914Z,100341.03
2022-07-30T01:50:46.565Z,100345.34
2022-07-30T01:53:18.240Z,100337.34
2022-07-30T01:55:47.741Z,100352.44
2022-07-30T01:58:20.693Z,100351.81
2022-07-30T02:00:58.245Z,100356.41
2022-07-30T02:03:27.959Z,100361.91
2022-07-30T02:05:59.683Z,100364.19
2022-07-30T02:08:37.963Z,100357.13
2022-07-30T02:11:09.892Z,100365.03
2022-07-30T02:13:46.506Z,100370.31
2022-07-30T02:16:19.582Z,100362.41
2022-07-30T02:18:56.929Z,100368.28
2022-07-30T02:21:36.353Z,100378.94
2022-07-30T02:24:09.515Z,100373.28
2022-07-30T02:26:39.436Z,100375.41
2022-07-30T02:29:11.670Z,100376.50
2022-07-30T02:31:42.162Z,100371.63
2022-07-30T02:34:11.467Z,100375.81
2022-07-30T02:36:43.195Z,100378.91
2022-07-30T02:39:14.732Z,100376.16
2022-07-30T02:41:49.487Z,100382.00
2022-07-30T02:44:21.350Z,100381.53
2022-07-30T02:46:50.915Z,100385.25
2022-07-30T02:49:52.072Z,100388.75
2022-07-30T02:52:20.459Z,100393.53
2022-07-30T02:54:51.476Z,100393.06
2022-07-30T02:57:22.221Z,100398.47
2022-07-30T02:59:54.315Z,100394.88
2022-07-30T03:02:29.046Z,100393.31
2022-07-30T03:04:59.927Z,100392.22
2022-07-30T03:07:29.842Z,100394.72
2022-07-30T03:09:58.998Z,100396.66
2022-07-30T03:12:31.227Z,100395.72
2022-07-30T03:15:00.605Z,100396.56
2022-07-30T03:17:34.851Z,100394.13
2022-07-30T03:20:04.911Z,100393.41
2022-07-30T03:22:37.212Z,100400.81
2022-07-30T03:25:07.838Z,100394.47
2022-07-30T03:27:38.296Z,100409.47
2022-07-30T03:30:09.605Z,100406.94
2022-07-30T03:32:38.471Z,100404.31
2022-07-30T03:35:17.148Z,100411.38
2022-07-30T03:37:47.969Z,100410.03
2022-07-30T03:40:16.918Z,100409.06
2022-07-30T03:42:46.205Z,100407.59
2022-07-30T03:45:20.176Z,100403.94
2022-07-30T03:47:50.874Z,100409.19
2022-07-30T03:50:18.841Z,100412.44
2022-07-30T03:52:48.960Z,100419.38
2022-07-30T03:55:18.759Z,100420.47
2022-07-30T03:57:49.985Z,100416.06
2022-07-30T04:00:21.765Z,100421.13
2022-07-30T04:02:53.369Z,100424.38
2022-07-30T04:05:42.700Z,100430.88
2022-07-30T04:08:13.337Z,100432.25
2022-07-30T04:10:42.436Z,100440.91
2022-07-30T04:13:28.868Z,100442.91
2022-07-30T04:16:39.145Z,100448.91
2022-07-30T04:18:58.632Z,100448.56
2022-07-30T04:21:27.938Z,100454.56
2022-07-30T04:24:02.406Z,100458.66
2022-07-30T04:26:36.776Z,100455.59
2022-07-30T04:29:07.284Z,100463.97
2022-07-30T04:31:41.012Z,100462.25
2022-07-30T04:34:27.974Z,100457.06
2022-07-30T04:36:56.262Z,100461.50
2022-07-30T04:39:24.229Z,100469.41
2022-07-30T04:41:52.911Z,100465.16
2022-07-30T04:44:29.501Z,100468.91
2022-07-30T04:47:19.231Z,100468.91
2022-07-30T04:50:01.206Z,100479.69
2022-07-30T04:52:30.497Z,100482.41
2022-07-30T04:55:03.221Z,100486.19
2022-07-30T04:57:32.364Z,100481.81
2022-07-30T05:00:00.536Z,100488.88
2022-07-30T05:02:33.742Z,100490.50
2022-07-30T05:05:04.852Z,100493.13
2022-07-30T05:07:34.583Z,100490.41
2022-07-30T05:10:03.560Z,100494.34
2022-07-30T05:12:34.296Z,100496.66
2022-07-30T05:15:02.853Z,100494.75
2022-07-30T05:17:32.826Z,100504.13
2022-07-30T05:20:02.130Z,100505.91
2022-07-30T05:22:35.549Z,100499.22
2022-07-30T05:25:03.943Z,100503.31
2022-07-30T05:27:44.349Z,100496.75
2022-07-30T05:30:13.664Z,100499.53
2022-07-30T05:32:49.785Z,100508.53
2022-07-30T05:35:19.362Z,100502.91
2022-07-30T05:37:47.557Z,100505.00
2022-07-30T05:40:15.698Z,100508.41
2022-07-30T05:43:06.335Z,100499.19
2022-07-30T05:45:34.730Z,100503.72
2022-07-30T05:48:04.751Z,100505.16
2022-07-30T05:50:33.103Z,100511.88
2022-07-30T05:53:01.190Z,100508.16
2022-07-30T05:55:47.333Z,100505.91
2022-07-30T05:58:38.386Z,100503.25
2022-07-30T06:01:06.537Z,100496.63
2022-07-30T06:03:36.278Z,100502.78
2022-07-30T06:06:42.739Z,100506.00
2022-07-30T06:09:12.295Z,100513.16
2022-07-30T06:11:41.390Z,100514.50
2022-07-30T06:14:09.701Z,100518.09
2022-07-30T06:16:38.115Z,100514.13
2022-07-30T06:19:08.170Z,100519.75
2022-07-30T06:22:05.593Z,100522.47
2022-07-30T06:24:38.447Z,100513.66
2022-07-30T06:27:16.482Z,100519.41
2022-07-30T06:29:44.583Z,100526.00
2022-07-30T06:32:13.462Z,100521.06
2022-07-30T06:34:42.936Z,100522.06
2022-07-30T06:37:13.065Z,100523.13
2022-07-30T06:39:55.932Z,100521.81
2022-07-30T06:42:45.812Z,100529.38
2022-07-30T06:45:36.643Z,100520.22
2022-07-30T06:48:39.936Z,100525.84
2022-07-30T06:51:09.762Z,100530.22
2022-07-30T06:53:42.632Z,100532.47
2022-07-30T06:56:15.256Z,100529.47
2022-07-30T06:58:54.048Z,100528.00
2022-07-30T07:01:28.050Z,100524.94
2022-07-30T07:03:58.455Z,100536.66
2022-07-30T07:06:29.042Z,100529.72
2022-07-30T07:08:57.199Z,100534.03
2022-07-30T07:11:33.802Z,100536.00
2022-07-30T07:14:08.452Z,100531.66
2022-07-30T07:16:37.939Z,100536.28
2022-07-30T07:20:00.418Z,100540.31
2022-07-30T07:22:16.751Z,100536.41
2022-07-30T07:24:46.014Z,100539.78
2022-07-30T07:27:18.544Z,100538.22
2022-07-30T07:30:01.304Z,100530.50
2022-07-30T07:32:36.193Z,100538.16
2022-07-30T07:35:06.144Z,100543.03
2022-07-30T07:37:37.802Z,100536.06
2022-07-30T07:40:08.776Z,100536.78
2022-07-30T07:42:41.379Z,100539.75
2022-07-30T07:45:10.154Z,100537.19
2022-07-30T07:47:53.123Z,100541.28
2022-07-30T07:50:42.201Z,100534.13
2022-07-30T07:53:19.354Z,100539.09
2022-07-30T07:55:48.656Z,100542.00
2022-07-30T07:58:22.133Z,100537.41
2022-07-30T08:00:54.901Z,100536.59
2022-07-30T08:03:28.661Z,100538.09
2022-07-30T08:06:06.248Z,100541.06
2022-07-30T08:09:02.503Z,100537.44
2022-07-30T08:11:57.282Z,100535.34
2022-07-30T08:14:54.357Z,100536.41
2022-07-30T08:17:42.071Z,100529.22
2022-07-30T08:20:15.586Z,100532.00
2022-07-30T08:22:44.738Z,100532.38
2022-07-30T08:25:21.715Z,100529.28
2022-07-30T08:27:53.167Z,100532.50
2022-07-30T08:30:21.965Z,100532.25
2022-07-30T08:32:50.123Z,100524.78
2022-07-30T08:35:18.108Z,100524.63
2022-07-30T08:37:47.158Z,100523.56
2022-07-30T08:40:20.039Z,100523.09
2022-07-30T08:42:55.391Z,100520.66
2022-07-30T08:45:34.745Z,100512.41
2022-07-30T08:48:17.314Z,100517.69
2022-07-30T08:50:47.037Z,100526.41
2022-07-30T08:53:36.311Z,100519.06
2022-07-30T08:56:08.793Z,100525.13
2022-07-30T08:58:37.798Z,100520.53
2022-07-30T09:01:08.694Z,100516.31
2022-07-30T09:03:44.388Z,100510.28
2022-07-30T09:06:13.581Z,100510.13
2022-07-30T09:08:42.682Z,100518.63
2022-07-30T09:11:14.019Z,100522.53
2022-07-30T09:13:44.456Z,100519.78
2022-07-30T09:16:24.188Z,100521.56
2022-07-30T09:18:55.611Z,100517.28
2022-07-30T09:21:26.555Z,100516.75
2022-07-30T09:24:14.713Z,100508.78
2022-07-30T09:27:10.942Z,100518.16
2022-07-30T09:30:01.831Z,100516.06
2022-07-30T09:32:49.882Z,100522.09
2022-07-30T09:35:29.760Z,100512.56
2022-07-30T09:38:14.209Z,100523.44
2022-07-30T09:40:57.742Z,100517.22
2022-07-30T09:43:57.915Z,100513.03
2022-07-30T09:46:47.539Z,100521.22
2022-07-30T09:49:24.578Z,100515.94
2022-07-30T09:51:56.969Z,100517.09
2022-07-30T09:54:51.174Z,100517.56
2022-07-30T09:57:27.438Z,100511.13
2022-07-30T10:00:24.022Z,100502.63
2022-07-30T10:03:38.494Z,100496.78
2022-07-30T10:06:37.848Z,100503.38
2022-07-30T10:09:25.977Z,100495.88
2022-07-30T10:11:58.571Z,100489.69
2022-07-30T10:14:32.436Z,100485.66
2022-07-30T10:17:03.901Z,100483.72
2022-07-30T10:19:39.530Z,100489.22
2022-07-30T10:22:21.489Z,100479.38
2022-07-30T10:25:19.448Z,100482.59
2022-07-30T10:28:13.379Z,100478.09
2022-07-30T10:30:42.074Z,100475.66
2022-07-30T10:33:34.091Z,100472.88
2022-07-30T10:36:02.732Z,100473.31
2022-07-30T10:38:33.558Z,100475.38
2022-07-30T10:41:09.328Z,100460.94
2022-07-30T10:43:54.934Z,100475.34
2022-07-30T10:46:34.960Z,100464.97
2022-07-30T10:49:18.573Z,100461.69
2022-07-30T10:51:50.370Z,100464.47
2022-07-30T10:54:39.493Z,100458.94
2022-07-30T10:57:14.753Z,100463.75
2022-07-30T11:00:15.454Z,100461.00
2022-07-30T11:03:40.375Z,100464.88
2022-07-30T11:06:38.059Z,100458.56
2022-07-30T11:09:36.452Z,100462.97
2022-07-30T11:12:11.158Z,100461.22
2022-07-30T11:15:07.458Z,100454.56
2022-07-30T11:18:01.872Z,100451.91
2022-07-30T11:20:31.376Z,100449.97
2022-07-30T11:23:40.728Z,100464.53
2022-07-30T11:26:14.499Z,100457.28
2022-07-30T11:28:46.202Z,100454.84
2022-07-30T11:31:54.455Z,100449.06
2022-07-30T11:34:31.289Z,100451.47
2022-07-30T11:37:18.293Z,100446.91
2022-07-30T11:40:14.115Z,100444.34
2022-07-30T11:42:43.762Z,100436.53
2022-07-30T11:45:26.830Z,100433.19
2022-07-30T11:47:57.604Z,100423.75
2022-07-30T11:50:27.749Z,100434.53
2022-07-30T11:52:58.286Z,100431.28
2022-07-30T11:55:30.647Z,100427.78
2022-07-30T11:57:59.898Z,100433.06
2022-07-30T12:00:36.084Z,100441.75
2022-07-30T12:03:11.380Z,100434.66
2022-07-30T12:05:40.385Z,100435.47
2022-07-30T12:08:31.380Z,100416.44
2022-07-30T12:11:01.882Z,100425.41
2022-07-30T12:13:44.834Z,100422.56
2022-07-30T12:16:18.441Z,100418.66
2022-07-30T12:18:47.753Z,100413.50
2022-07-30T12:21:16.815Z,100405.34
2022-07-30T12:23:54.698Z,100410.25
2022-07-30T12:26:26.929Z,100410.09
2022-07-30T12:28:56.278Z,100411.84
2022-07-30T12:31:24.418Z,100407.50
2022-07-30T12:33:52.542Z,100405.97
2022-07-30T12:36:29.384Z,100401.72
2022-07-30T12:38:58.274Z,100402.38
2022-07-30T12:41:46.165Z,100396.97
2022-07-30T12:44:35.818Z,100401.47
2022-07-30T12:47:05.237Z,100405.63
2022-07-30T12:49:37.569Z,100398.41
2022-07-30T12:52:43.629Z,100396.81
2022-07-30T12:55:13.647Z,100390.69
2022-07-30T12:57:58.139Z,100394.38
2022-07-30T13:00:28.309Z,100400.09
2022-07-30T13:02:57.500Z,100402.59
2022-07-30T13:05:47.499Z,100401.66
2022-07-30T13:08:15.815Z,100399.81
2022-07-30T13:10:59.256Z,100392.63
2022-07-30T13:13:29.976Z,100386.91
2022-07-30T13:16:01.754Z,100383.03
2022-07-30T13:18:30.773Z,100377.06
2022-07-30T13:20:59.488Z,100377.06
2022-07-30T13:23:27.806Z,100376.34
2022-07-30T13:25:55.815Z,100389.47
2022-07-30T13:28:23.943Z,100379.69
2022-07-30T13:30:53.550Z,100383.56
2022-07-30T13:33:22.411Z,100381.22
2022-07-30T13:35:51.462Z,100390.47
2022-07-30T13:38:19.573Z,100381.16
2022-07-30T13:40:48.356Z,100378.03
2022-07-30T13:43:16.778Z,100377.22
2022-07-30T13:45:44.723Z,100370.75
2022-07-30T13:48:14.154Z,100362.00
2022-07-30T13:50:42.819Z,100369.38
2022-07-30T13:53:11.720Z,100374.84
2022-07-30T13:55:41.440Z,100379.31
2022-07-30T13:58:10.519Z,100359.19
2022-07-30T14:00:40.762Z,100359.03
2022-07-30T14:03:11.268Z,100364.19
2022-07-30T14:05:42.324Z,100358.88
2022-07-30T14:08:11.927Z,100355.66
2022-07-30T14:10:40.705Z,100360.78
2022-07-30T14:13:14.390Z,100356.88
2022-07-30T14:15:49.078Z,100349.66
2022-07-30T14:18:17.698Z,100359.63
2022-07-30T14:20:48.815Z,100361.72
2022-07-30T14:23:17.458Z,100355.41
2022-07-30T14:25:45.741Z,100356.91
2022-07-30T14:28:14.230Z,100362.53
2022-07-30T14:30:42.188Z,100352.34
2022-07-30T14:33:13.202Z,100354.69
2022-07-30T14:35:41.497Z,100355.81
2022-07-30T14:38:10.986Z,100353.56
2022-07-30T14:40:38.947Z,100352.69
2022-07-30T14:43:07.859Z,100352.75
2022-07-30T14:45:36.577Z,100356.41
2022-07-30T14:48:05.106Z,100353.97
2022-07-30T14:50:33.063Z,100353.97
2022-07-30T14:53:01.341Z,100355.03
2022-07-30T14:55:31.857Z,100351.97
2022-07-30T14:58:00.333Z,100356.91
2022-07-30T15:00:31.908Z,100356.50
2022-07-30T15:03:03.439Z,100348.22
2022-07-30T15:05:31.752Z,100356.69
2022-07-30T15:07:59.781Z,100350.22
2022-07-30T15:10:27.676Z,100359.31
2022-07-30T15:12:57.139Z,100355.69
2022-07-30T15:15:26.794Z,100349.91
2022-07-30T15:18:01.492Z,100349.38
2022-07-30T15:20:29.399Z,100358.84
2022-07-30T15:22:58.224Z,100366.03
2022-07-30T15:25:26.812Z,100352.13
2022-07-30T15:27:54.782Z,100352.75
2022-07-30T15:30:24.715Z,100347.91
2022-07-30T15:32:54.306Z,100353.53
2022-07-30T15:35:22.727Z,100354.97
2022-07-30T15:37:51.096Z,100355.72
2022-07-30T15:40:19.073Z,100359.41
2022-07-30T15:42:47.333Z,100357.19
2022-07-30T15:45:17.703Z,100349.56
2022-07-30T15:47:48.266Z,100356.31
2022-07-30T15:50:17.255Z,100361.63
2022-07-30T15:52:46.294Z,100348.59
2022-07-30T15:55:14.282Z,100346.25
2022-07-30T15:57:43.364Z,100355.63
2022-07-30T16:00:12.561Z,100355.09
2022-07-30T16:02:41.617Z,100357.09
2022-07-30T16:05:13.882Z,100357.81
2022-07-30T16:07:42.845Z,100361.91
2022-07-30T16:10:11.580Z,100356.88
2022-07-30T16:12:40.168Z,100363.59
2022-07-30T16:15:10.700Z,100365.34
2022-07-30T16:17:38.794Z,100360.59
2022-07-30T16:20:08.121Z,100355.63
2022-07-30T16:22:38.866Z,100356.88
2022-07-30T16:25:08.585Z,100351.66
2022-07-30T16:27:37.581Z,100351.44
2022-07-30T16:30:06.863Z,100350.44
2022-07-30T16:32:34.747Z,100349.44
2022-07-30T16:35:03.872Z,100354.88
2022-07-30T16:37:31.918Z,100351.63
2022-07-30T16:40:01.204Z,100348.50
2022-07-30T16:42:29.172Z,100356.72
2022-07-30T16:44:57.948Z,100355.81
2022-07-30T16:47:26.003Z,100348.94
2022-07-30T16:49:54.173Z,100346.63
2022-07-30T16:52:22.409Z,100345.63
2022-07-30T16:54:55.303Z,100354.69
2022-07-30T16:57:24.639Z,100357.41
2022-07-30T16:59:52.632Z,100351.78
2022-07-30T17:02:20.842Z,100348.78
2022-07-30T17:04:48.796Z,100360.00
2022-07-30T17:07:17.500Z,100359.47
2022-07-30T17:09:51.803Z,100359.06
2022-07-30T17:12:23.303Z,100361.66
2022-07-30T17:14:54.826Z,100363.19
2022-07-30T17:17:22.776Z,100362.72
2022-07-30T17:19:52.039Z,100354.53
2022-07-30T17:22:20.585Z,100360.75
2022-07-30T17:24:48.909Z,100366.09
2022-07-30T17:27:17.656Z,100364.69
2022-07-30T17:29:49.864Z,100370.16
2022-07-30T17:32:20.349Z,100376.41
2022-07-30T17:34:49.068Z,100378.59
2022-07-30T17:37:17.371Z,100384.25
2022-07-30T17:40:19.066Z,100383.91
2022-07-30T17:42:33.413Z,100381.75
2022-07-30T17:45:01.977Z,100389.72
2022-07-30T17:47:31.380Z,100379.63
2022-07-30T17:49:59.496Z,100379.16
2022-07-30T17:52:28.440Z,100395.63
2022-07-30T17:54:57.289Z,100389.22
2022-07-30T17:57:25.812Z,100399.19
2022-07-30T17:59:53.885Z,100400.19
2022-07-30T18:02:27.513Z,100396.03
2022-07-30T18:04:59.703Z,100404.06
2022-07-30T18:07:28.046Z,100406.56
2022-07-30T18:09:56.478Z,100410.41
2022-07-30T18:12:24.790Z,100412.09
2022-07-30T18:14:52.970Z,100410.56
2022-07-30T18:17:20.795Z,100416.91
2022-07-30T18:19:49.942Z,100417.25
2022-07-30T18:22:28.227Z,100420.41
2022-07-30T18:25:00.192Z,100414.94
2022-07-30T18:27:28.807Z,100417.72
2022-07-30T18:29:57.278Z,100417.56
2022-07-30T18:32:25.560Z,100418.41
2022-07-30T18:34:53.498Z,100422.72
2022-07-30T18:37:22.732Z,100424.16
2022-07-30T18:39:50.784Z,100424.63
2022-07-30T18:42:18.766Z,100432.47
2022-07-30T18:44:47.983Z,100429.78
2022-07-30T18:47:15.934Z,100438.63
2022-07-30T18:49:43.786Z,100434.91
2022-07-30T18:52:12.349Z,100444.25
2022-07-30T18:54:47.224Z,100442.53
2022-07-30T18:57:15.960Z,100443.88
2022-07-30T18:59:44.095Z,100446.31
2022-07-30T19:02:15.567Z,100446.03
2022-07-30T19:04:43.578Z,100450.28
2022-07-30T19:07:11.624Z,100462.59
2022-07-30T19:09:40.012Z,100457.78
2022-07-30T19:12:09.900Z,100459.31
2022-07-30T19:14:38.806Z,100456.50
2022-07-30T19:17:13.942Z,100459.41
2022-07-30T19:19:43.613Z,100458.75
2022-07-30T19:22:11.725Z,100464.34
2022-07-30T19:24:39.999Z,100473.81
2022-07-30T19:27:14.110Z,100474.41
2022-07-30T19:29:43.416Z,100485.63
2022-07-30T19:32:11.796Z,100486.47
2022-07-30T19:34:40.772Z,100490.91
2022-07-30T19:37:09.615Z,100498.41
2022-07-30T19:39:37.642Z,100494.34
2022-07-30T19:42:27.844Z,100503.13
2022-07-30T19:44:55.895Z,100507.66
2022-07-30T19:47:26.178Z,100503.69
2022-07-30T19:49:54.841Z,100510.66
2022-07-30T19:52:25.507Z,100522.41
2022-07-30T19:54:54.230Z,100524.38
2022-07-30T19:57:22.617Z,100528.41
2022-07-30T20:00:12.983Z,100531.94
2022-07-30T20:02:41.120Z,100528.66
2022-07-30T20:05:11.966Z,100526.06
2022-07-30T20:07:44.532Z,100523.63
2022-07-30T20:10:13.116Z,100521.44
2022-07-30T20:15:33.360Z,100522.88
2022-07-30T20:20:51.234Z,100533.41
2022-07-30T20:23:20.352Z,100533.16
2022-07-30T20:25:51.047Z,100535.69
2022-07-30T20:28:19.995Z,100534.88
2022-07-30T20:30:49.968Z,100535.44
2022-07-30T20:33:17.835Z,100533.63
2022-07-30T20:36:04.419Z,100544.81
2022-07-30T20:38:35.694Z,100539.06
2022-07-30T20:41:10.085Z,100546.63
2022-07-30T20:43:51.570Z,100549.72
2022-07-30T20:46:23.682Z,100548.16
2022-07-30T20:48:52.654Z,100550.13
2022-07-30T20:51:20.797Z,100551.25
2022-07-30T20:56:38.428Z,100542.00
2022-07-30T20:59:07.297Z,100553.34
2022-07-30T21:01:37.115Z,100554.31
2022-07-30T21:04:05.406Z,100561.16
2022-07-30T21:06:34.737Z,100557.81
2022-07-30T21:09:02.771Z,100554.16
2022-07-30T21:11:31.235Z,100552.41
2022-07-30T21:14:03.894Z,100550.56
2022-07-30T21:16:33.832Z,100553.06
2022-07-30T21:19:03.574Z,100565.19
2022-07-30T21:21:41.818Z,100556.72
2022-07-30T21:24:18.931Z,100562.34
2022-07-30T21:26:49.579Z,100568.94
2022-07-30T21:29:19.153Z,100563.81
2022-07-30T21:31:57.869Z,100562.84
2022-07-30T21:34:35.514Z,100568.69
2022-07-30T21:37:08.881Z,100571.34
2022-07-30T21:39:39.897Z,100567.03
2022-07-30T21:42:09.354Z,100564.22
2022-07-30T21:44:37.544Z,100567.41
2022-07-30T21:47:09.993Z,100571.19
2022-07-30T21:49:41.180Z,100560.72
2022-07-30T21:52:12.993Z,100571.97
2022-07-30T21:54:48.461Z,100574.50
2022-07-30T21:57:26.351Z,100572.94
2022-07-30T21:59:58.820Z,100579.81
2022-07-30T22:02:28.050Z,100575.19
2022-07-30T22:04:59.084Z,100587.03
2022-07-30T22:07:27.111Z,100581.75
2022-07-30T22:09:55.190Z,100582.59
2022-07-30T22:12:28.822Z,100580.34
2022-07-30T22:14:57.158Z,100579.94
2022-07-30T22:17:37.352Z,100581.09
2022-07-30T22:20:14.692Z,100582.81
2022-07-30T22:22:42.500Z,100578.47
2022-07-30T22:25:11.785Z,100569.66
2022-07-30T22:30:30.471Z,100573.44
2022-07-30T22:33:09.797Z,100582.81
2022-07-30T22:35:39.671Z,100578.59
2022-07-30T22:38:14.867Z,100576.72
2022-07-30T22:40:43.613Z,100584.78
2022-07-30T22:43:13.304Z,100576.53
2022-07-30T22:45:48.440Z,100577.63
2022-07-30T22:48:19.260Z,100577.94
2022-07-30T22:50:51.807Z,100574.06
2022-07-30T22:54:10.923Z,100571.41
2022-07-30T22:56:10.150Z,100571.25
2022-07-30T22:58:42.723Z,100575.28
2022-07-30T23:01:11.262Z,100588.28
2022-07-30T23:03:39.315Z,100582.81
2022-07-30T23:06:14.487Z,100577.00
2022-07-30T23:08:42.814Z,100574.34
2022-07-30T23:11:11.259Z,100573.69
2022-07-30T23:12:16.465Z,100527.66
2022-07-30T23:12:16.728Z,100523.34
2022-07-30T23:12:26.419Z,100551.53
2022-07-30T23:12:32.894Z,100573.84
2022-07-30T23:13:40.040Z,100565.63
2022-07-30T23:16:08.438Z,100565.19
2022-07-30T23:18:36.435Z,100563.75
2022-07-30T23:21:05.739Z,100562.63
2022-07-30T23:23:35.789Z,100560.81
2022-07-30T23:26:04.441Z,100557.47
2022-07-30T23:28:32.602Z,100556.47
2022-07-30T23:31:00.449Z,100566.94
2022-07-30T23:33:28.688Z,100563.91
2022-07-30T23:35:57.458Z,100563.34
2022-07-30T23:38:25.438Z,100560.41
2022-07-30T23:40:55.006Z,100559.28
2022-07-30T23:43:23.485Z,100566.28
2022-07-30T23:45:51.602Z,100563.25
2022-07-30T23:48:19.538Z,100563.06
2022-07-30T23:50:47.747Z,100569.50
2022-07-30T23:53:16.066Z,100568.66
2022-07-30T23:55:47.664Z,100568.94
2022-07-30T23:58:17.437Z,100561.69
